createdAt,value
2019-01-20T00:02:01.559Z,33.23
2019-01-20T00:04:40.424Z,34.90
2019-01-20T00:07:19.352Z,34.43
2019-01-20T00:09:54.282Z,32.97
2019-01-20T00:12:37.598Z,32.73
2019-01-20T00:15:13.984Z,32.80
2019-01-20T00:17:50.355Z,30.67
2019-01-20T00:20:25.298Z,30.73
2019-01-20T00:23:00.040Z,30.03
2019-01-20T00:25:37.094Z,31.17
2019-01-20T00:28:11.949Z,31.77
2019-01-20T00:30:54.460Z,31.40
2019-01-20T00:33:49.992Z,32.63
2019-01-20T00:36:32.647Z,31.67
2019-01-20T00:39:09.454Z,33.53
2019-01-20T00:41:48.766Z,32.80
2019-01-20T00:44:23.747Z,32.77
2019-01-20T00:47:27.603Z,32.10
2019-01-20T00:50:02.488Z,30.80
2019-01-20T00:52:38.970Z,31.10
2019-01-20T00:55:20.781Z,31.43
2019-01-20T00:57:55.812Z,30.57
2019-01-20T01:00:55.402Z,30.70
2019-01-20T01:03:30.391Z,29.37
2019-01-20T01:06:05.308Z,30.80
2019-01-20T01:08:42.959Z,31.93
2019-01-20T01:11:17.927Z,31.27
2019-01-20T01:14:20.172Z,31.63
2019-01-20T01:16:55.092Z,31.27
2019-01-20T01:19:35.367Z,33.63
2019-01-20T01:22:56.821Z,32.83
2019-01-20T01:25:35.574Z,34.27
2019-01-20T01:28:10.541Z,32.23
2019-01-20T01:30:46.530Z,32.47
2019-01-20T01:33:21.478Z,32.40
2019-01-20T01:35:56.396Z,31.97
2019-01-20T01:38:35.904Z,33.57
2019-01-20T01:41:10.839Z,32.93
2019-01-20T01:43:45.679Z,34.30
2019-01-20T01:46:21.852Z,33.33
2019-01-20T01:48:56.768Z,33.23
2019-01-20T01:51:31.604Z,32.33
2019-01-20T01:54:08.375Z,33.37
2019-01-20T01:56:46.274Z,33.50
2019-01-20T01:59:23.759Z,35.30
2019-01-20T02:01:58.799Z,34.63
2019-01-20T02:04:33.724Z,33.53
2019-01-20T02:07:10.351Z,32.03
2019-01-20T02:09:45.220Z,30.90
2019-01-20T02:12:22.577Z,32.33
2019-01-20T02:14:57.351Z,33.03
2019-01-20T02:17:32.247Z,33.07
2019-01-20T02:20:12.712Z,33.63
2019-01-20T02:22:47.784Z,33.07
2019-01-20T02:25:22.783Z,33.10
2019-01-20T02:27:58.729Z,33.57
2019-01-20T02:30:34.232Z,34.13
2019-01-20T02:33:09.209Z,34.17
2019-01-20T02:36:03.335Z,32.07
2019-01-20T02:38:41.202Z,32.07
2019-01-20T02:45:03.431Z,32.83
2019-01-20T02:50:48.780Z,41.67
2019-01-20T02:53:33.206Z,32.33
2019-01-20T02:56:13.009Z,32.73
2019-01-20T02:58:46.690Z,32.73
2019-01-20T03:01:21.648Z,32.47
2019-01-20T03:04:01.809Z,33.23
2019-01-20T03:06:36.807Z,33.50
2019-01-20T03:09:13.159Z,34.93
2019-01-20T03:11:49.714Z,33.40
2019-01-20T03:14:24.495Z,33.43
2019-01-20T03:16:59.679Z,33.37
2019-01-20T03:19:34.895Z,34.13
2019-01-20T03:22:16.890Z,34.17
2019-01-20T03:24:51.647Z,35.27
2019-01-20T03:27:26.736Z,35.70
2019-01-20T03:30:10.238Z,35.87
2019-01-20T03:36:29.364Z,35.63
2019-01-20T03:39:05.425Z,35.77
2019-01-20T03:41:42.860Z,35.40
2019-01-20T03:44:18.654Z,35.13
2019-01-20T03:46:55.584Z,34.17
2019-01-20T03:49:30.141Z,34.07
2019-01-20T03:52:05.274Z,34.10
2019-01-20T03:54:40.396Z,33.77
2019-01-20T03:57:18.504Z,35.57
2019-01-20T03:59:53.476Z,35.33
2019-01-20T04:02:28.495Z,35.23
2019-01-20T04:05:03.606Z,35.87
2019-01-20T04:07:38.526Z,34.77
2019-01-20T04:10:13.997Z,35.47
2019-01-20T04:12:52.117Z,33.63
2019-01-20T04:15:28.089Z,33.03
2019-01-20T04:18:04.781Z,32.63
2019-01-20T04:20:39.858Z,34.40
2019-01-20T04:23:14.738Z,33.10
2019-01-20T04:25:49.756Z,34.17
2019-01-20T04:28:24.751Z,34.07
2019-01-20T04:30:59.864Z,34.17
2019-01-20T04:33:38.895Z,35.17
2019-01-20T04:36:13.817Z,34.90
2019-01-20T04:38:54.000Z,34.43
2019-01-20T04:41:29.044Z,34.30
2019-01-20T04:44:09.227Z,34.00
2019-01-20T04:46:44.142Z,34.57
2019-01-20T04:49:19.150Z,34.47
2019-01-20T04:51:54.209Z,34.10
2019-01-20T04:54:29.541Z,34.60
2019-01-20T04:57:04.441Z,34.80
2019-01-20T04:59:40.992Z,35.20
2019-01-20T05:02:15.996Z,34.33
2019-01-20T05:04:57.431Z,36.20
2019-01-20T05:07:32.375Z,35.20
2019-01-20T05:10:16.701Z,35.03
2019-01-20T05:12:51.656Z,34.33
2019-01-20T05:15:29.308Z,34.97
2019-01-20T05:18:04.751Z,34.70
2019-01-20T05:20:39.650Z,34.77
2019-01-20T05:23:16.179Z,35.10
2019-01-20T05:25:53.559Z,34.33
2019-01-20T05:28:28.725Z,35.03
2019-01-20T05:31:05.116Z,35.30
2019-01-20T05:33:41.749Z,35.67
2019-01-20T05:36:16.514Z,36.40
2019-01-20T05:38:54.020Z,35.63
2019-01-20T05:41:28.848Z,36.13
2019-01-20T05:44:05.049Z,35.33
2019-01-20T05:47:30.393Z,37.03
2019-01-20T05:50:14.034Z,36.23
2019-01-20T05:52:49.026Z,36.23
2019-01-20T05:55:32.910Z,37.10
2019-01-20T05:58:07.775Z,37.17
2019-01-20T06:00:45.134Z,36.83
2019-01-20T06:03:20.059Z,36.17
2019-01-20T06:05:55.053Z,36.23
2019-01-20T06:08:31.695Z,36.87
2019-01-20T06:11:06.545Z,35.00
2019-01-20T06:13:44.019Z,37.67
2019-01-20T06:16:19.946Z,36.60
2019-01-20T06:18:54.756Z,35.17
2019-01-20T06:21:32.246Z,34.57
2019-01-20T06:24:07.207Z,34.27
2019-01-20T06:26:49.676Z,35.30
2019-01-20T06:29:24.740Z,33.77
2019-01-20T06:32:03.425Z,34.67
2019-01-20T06:34:38.398Z,36.17
2019-01-20T06:37:13.405Z,35.43
2019-01-20T06:39:52.408Z,35.37
2019-01-20T06:42:27.289Z,36.33
2019-01-20T06:45:05.136Z,37.27
2019-01-20T06:47:40.094Z,36.93
2019-01-20T06:50:15.431Z,39.07
2019-01-20T06:52:51.621Z,36.50
2019-01-20T06:55:33.994Z,37.93
2019-01-20T06:58:08.911Z,36.27
2019-01-20T07:00:44.134Z,35.90
2019-01-20T07:03:19.130Z,35.57
2019-01-20T07:05:55.051Z,36.00
2019-01-20T07:08:33.038Z,34.97
2019-01-20T07:11:07.926Z,36.33
2019-01-20T07:13:46.193Z,37.00
2019-01-20T07:16:21.363Z,36.07
2019-01-20T07:18:56.209Z,36.40
2019-01-20T07:21:31.204Z,37.17
2019-01-20T07:24:06.149Z,36.17
2019-01-20T07:26:41.116Z,36.33
2019-01-20T07:29:22.486Z,36.80
2019-01-20T07:31:57.467Z,35.27
2019-01-20T07:34:35.770Z,36.90
2019-01-20T07:37:10.974Z,35.40
2019-01-20T07:39:53.066Z,36.17
2019-01-20T07:42:28.263Z,36.17
2019-01-20T07:45:11.705Z,35.87
2019-01-20T07:47:46.658Z,36.77
2019-01-20T07:50:24.600Z,35.87
2019-01-20T07:52:59.486Z,35.40
2019-01-20T07:55:34.375Z,36.10
2019-01-20T07:58:09.437Z,34.57
2019-01-20T08:00:44.412Z,36.17
2019-01-20T08:03:19.303Z,34.03
2019-01-20T08:05:54.205Z,35.33
2019-01-20T08:08:29.228Z,35.07
2019-01-20T08:11:06.198Z,35.90
2019-01-20T08:13:40.949Z,37.30
2019-01-20T08:16:15.933Z,35.27
2019-01-20T08:18:54.635Z,36.27
2019-01-20T08:21:29.777Z,35.53
2019-01-20T08:24:04.808Z,34.97
2019-01-20T08:26:39.669Z,35.63
2019-01-20T08:29:24.386Z,34.73
2019-01-20T08:31:59.416Z,35.30
2019-01-20T08:35:01.232Z,35.13
2019-01-20T08:37:38.754Z,36.83
2019-01-20T08:40:21.633Z,37.20
2019-01-20T08:43:00.775Z,35.27
2019-01-20T08:45:41.449Z,35.83
2019-01-20T08:48:38.633Z,37.10
2019-01-20T08:51:15.184Z,36.83
2019-01-20T08:53:52.710Z,37.93
2019-01-20T08:56:27.759Z,36.70
2019-01-20T08:59:15.999Z,36.33
2019-01-20T09:01:50.866Z,36.63
2019-01-20T09:04:53.346Z,37.00
2019-01-20T09:07:28.360Z,37.63
2019-01-20T09:10:21.542Z,38.70
2019-01-20T09:13:02.495Z,37.30
2019-01-20T10:30:54.554Z,34.50
2019-01-20T10:33:29.704Z,36.33
2019-01-20T10:36:11.199Z,37.13
2019-01-20T10:41:43.424Z,31.40
2019-01-20T10:44:22.833Z,42.97
2019-01-20T10:46:57.977Z,33.10
2019-01-20T10:49:36.723Z,37.73
2019-01-20T10:52:11.598Z,41.03
2019-01-20T10:54:51.616Z,36.20
2019-01-20T10:57:26.532Z,36.03
2019-01-20T11:00:02.562Z,38.13
2019-01-20T11:02:39.590Z,38.30
2019-01-20T11:05:15.807Z,39.47
2019-01-20T11:07:59.704Z,38.17
2019-01-20T11:10:34.889Z,38.63
2019-01-20T11:13:17.042Z,37.47
2019-01-20T11:15:52.048Z,38.97
2019-01-20T11:18:49.142Z,39.40
2019-01-20T11:21:26.164Z,38.93
2019-01-20T11:24:01.300Z,39.03
2019-01-20T11:28:11.996Z,39.23
2019-01-20T11:29:14.934Z,39.37
2019-01-20T11:31:49.877Z,38.93
2019-01-20T11:34:26.566Z,40.03
2019-01-20T11:37:01.419Z,40.53
2019-01-20T11:39:36.305Z,39.43
2019-01-20T11:42:15.558Z,41.70
2019-01-20T11:44:50.411Z,35.67
2019-01-20T11:47:25.339Z,33.33
2019-01-20T11:50:00.312Z,37.97
2019-01-20T11:52:35.206Z,38.77
2019-01-20T11:55:16.023Z,39.13
2019-01-20T11:57:49.029Z,41.00
2019-01-20T12:00:26.686Z,40.83
2019-01-20T12:03:08.856Z,37.53
2019-01-20T12:05:45.797Z,33.73
2019-01-20T12:08:20.651Z,38.83
2019-01-20T12:10:55.639Z,39.40
2019-01-20T12:13:33.462Z,40.03
2019-01-20T12:16:10.582Z,40.17
2019-01-20T12:18:53.391Z,40.00
2019-01-20T12:21:31.055Z,36.80
2019-01-20T12:24:13.815Z,38.60
2019-01-20T12:27:00.484Z,38.93
2019-01-20T12:29:28.358Z,39.77
2019-01-20T12:32:03.389Z,38.57
2019-01-20T12:34:47.316Z,37.27
2019-01-20T12:37:23.366Z,39.77
2019-01-20T12:40:02.093Z,38.23
2019-01-20T12:42:37.134Z,37.87
2019-01-20T12:45:19.589Z,41.03
2019-01-20T12:47:55.657Z,40.47
2019-01-20T12:54:13.569Z,38.37
2019-01-20T12:56:49.533Z,39.47
2019-01-20T12:59:37.836Z,37.53
2019-01-20T13:02:23.240Z,32.37
2019-01-20T13:05:00.341Z,41.07
2019-01-20T13:07:48.277Z,39.47
2019-01-20T13:11:16.380Z,40.43
2019-01-20T13:14:06.163Z,40.50
2019-01-20T13:17:16.611Z,38.37
2019-01-20T13:19:58.491Z,41.43
2019-01-20T13:22:35.735Z,39.70
2019-01-20T13:25:41.901Z,45.50
2019-01-20T13:28:27.097Z,41.03
2019-01-20T13:31:54.479Z,42.27
2019-01-20T13:35:31.981Z,38.90
2019-01-20T13:38:59.877Z,40.70
2019-01-20T13:41:35.531Z,40.43
2019-01-20T13:44:19.569Z,40.10
2019-01-20T13:46:54.581Z,38.17
2019-01-20T13:57:39.163Z,40.87
2019-01-20T14:00:37.342Z,47.30
2019-01-20T14:03:19.907Z,41.93
2019-01-20T14:05:55.378Z,35.00
2019-01-20T14:08:57.738Z,40.93
2019-01-20T14:11:32.931Z,42.13
2019-01-20T14:14:15.312Z,44.57
2019-01-20T14:37:59.881Z,42.43
2019-01-20T14:40:43.945Z,42.33
2019-01-20T14:43:23.314Z,42.50
2019-01-20T14:46:08.014Z,44.40
2019-01-20T14:48:49.873Z,44.60
2019-01-20T14:51:25.955Z,44.03
2019-01-20T14:54:06.933Z,44.90
2019-01-20T14:56:42.182Z,42.10
2019-01-20T14:59:24.518Z,43.23
2019-01-20T15:02:01.971Z,41.67
2019-01-20T15:05:07.543Z,43.13
2019-01-20T15:07:42.649Z,44.37
2019-01-20T17:43:33.615Z,51.57
2019-01-20T17:46:10.385Z,51.17
2019-01-20T17:48:52.347Z,50.47
2019-01-20T17:51:28.990Z,50.47
2019-01-20T17:54:04.997Z,49.23
2019-01-20T17:57:25.665Z,48.47
2019-01-20T18:00:01.972Z,49.10
2019-01-20T18:03:23.304Z,51.03
2019-01-20T22:23:30.106Z,46.87
2019-01-20T22:26:05.447Z,47.67
2019-01-20T22:28:50.991Z,45.67
2019-01-20T22:31:18.897Z,46.33
2019-01-20T22:33:54.042Z,46.23
2019-01-20T22:36:30.192Z,46.70
2019-01-20T22:39:14.299Z,45.83
2019-01-20T22:41:49.389Z,46.60
2019-01-20T22:44:32.353Z,48.30
2019-01-20T22:47:07.680Z,49.00
2019-01-20T22:49:47.398Z,47.27
2019-01-20T22:52:22.469Z,48.03
2019-01-20T22:55:07.543Z,48.17
2019-01-20T22:57:50.156Z,46.93
2019-01-20T23:00:39.517Z,46.67
2019-01-20T23:03:14.774Z,44.70
2019-01-20T23:05:56.911Z,45.23
2019-01-20T23:08:31.967Z,44.97
2019-01-20T23:11:14.720Z,45.67
2019-01-20T23:13:49.835Z,46.03
2019-01-20T23:16:29.413Z,44.93
2019-01-20T23:19:04.626Z,44.93
2019-01-20T23:21:50.465Z,45.97
2019-01-20T23:24:25.755Z,46.07
2019-01-20T23:27:10.089Z,46.63
2019-01-20T23:29:51.707Z,46.63
2019-01-20T23:32:25.341Z,46.83
2019-01-20T23:35:00.639Z,46.00
2019-01-20T23:37:38.927Z,46.87
2019-01-20T23:40:14.332Z,47.60
2019-01-20T23:42:58.753Z,45.97
2019-01-20T23:45:33.942Z,46.97
2019-01-20T23:48:14.860Z,46.50
2019-01-20T23:50:50.123Z,48.07
2019-01-20T23:53:34.331Z,45.73
2019-01-20T23:56:15.786Z,47.10
2019-01-20T23:58:48.011Z,46.70
